Terminal Aerodrome Forecast
Issued by NWS

Home | Current Version | Previous Version | Text Only | Print | Product List | Glossary On
Versions: 1 2 3 4 5 6 7 8 9 10 11 12 13 14 15 16 17 18 19 20 21
167
FTUS43 KDLH 061509 AAA
TAFBRD
TAF AMD
KBRD 061509Z 0615/0712 19013G26KT 6SM -SN OVC023
     FM061800 24020G33KT 4SM -SHSN BR OVC012
      TEMPO 0618/0622 2SM -SHSN OVC009
     FM070200 27022G28KT 5SM BR VCSH SCT008 OVC012=

USA.gov is the U.S. government's official web portal to all federal, state and local government web resources and services.